createdAt,value
2023-04-08T00:00:17.121Z,9.20
2023-04-08T00:01:19.712Z,7.85
2023-04-08T00:02:22.375Z,8.90
2023-04-08T00:03:25.695Z,8.32
2023-04-08T00:04:28.360Z,7.43
2023-04-08T00:05:31.045Z,8.52
2023-04-08T00:06:33.598Z,9.13
2023-04-08T00:07:37.394Z,9.63
2023-04-08T00:08:40.247Z,7.07
2023-04-08T00:09:42.733Z,8.98
2023-04-08T00:10:45.597Z,9.35
2023-04-08T00:11:48.311Z,9.75
2023-04-08T00:12:51.163Z,11.70
2023-04-08T00:13:53.704Z,9.35
2023-04-08T00:14:56.493Z,10.00
2023-04-08T00:15:59.392Z,9.65
2023-04-08T00:17:01.974Z,8.98
2023-04-08T00:18:04.757Z,8.98
2023-04-08T00:19:07.366Z,7.53
2023-04-08T00:20:10.225Z,7.70
2023-04-08T00:21:13.758Z,6.75
2023-04-08T00:22:16.276Z,7.72
2023-04-08T00:23:21.483Z,8.18
2023-04-08T00:24:23.993Z,7.78
2023-04-08T00:25:26.506Z,12.18
2023-04-08T00:26:29.011Z,8.45
2023-04-08T00:27:31.611Z,9.35
2023-04-08T00:28:34.075Z,7.55
2023-04-08T00:29:36.578Z,8.30
2023-04-08T00:30:39.491Z,8.60
2023-04-08T00:31:42.075Z,9.20
2023-04-08T00:32:44.728Z,7.40
2023-04-08T00:33:47.295Z,6.78
2023-04-08T00:34:49.922Z,7.53
2023-04-08T00:35:52.713Z,7.00
2023-04-08T00:36:55.313Z,8.82
2023-04-08T00:37:57.748Z,9.15
2023-04-08T00:39:00.237Z,9.68
2023-04-08T00:40:02.696Z,10.10
2023-04-08T00:41:05.394Z,7.90
2023-04-08T00:42:07.841Z,8.02
2023-04-08T00:43:10.338Z,8.45
2023-04-08T00:44:12.965Z,9.57
2023-04-08T00:45:16.091Z,7.93
2023-04-08T00:46:19.048Z,9.25
2023-04-08T00:47:21.869Z,8.38
2023-04-08T00:48:24.606Z,9.38
2023-04-08T00:49:27.406Z,7.07
2023-04-08T00:50:30.022Z,8.40
2023-04-08T00:51:32.696Z,10.77
2023-04-08T00:52:35.389Z,10.68
2023-04-08T00:53:38.041Z,9.30
2023-04-08T00:54:41.639Z,14.18
2023-04-08T00:55:44.577Z,9.82
2023-04-08T00:56:47.171Z,8.02
2023-04-08T00:57:49.855Z,8.80
2023-04-08T00:58:55.200Z,11.50
2023-04-08T00:59:57.813Z,8.40
2023-04-08T01:01:13.180Z,9.90
2023-04-08T01:02:26.278Z,8.52
2023-04-08T01:04:02.689Z,10.98
2023-04-08T01:05:09.657Z,9.27
2023-04-08T01:06:27.092Z,10.52
2023-04-08T01:07:35.181Z,10.45
2023-04-08T01:08:39.074Z,11.07
2023-04-08T01:09:58.528Z,9.65
2023-04-08T01:11:02.729Z,10.05
2023-04-08T01:12:08.435Z,11.00
2023-04-08T01:13:12.822Z,9.52
2023-04-08T01:14:18.016Z,12.15
2023-04-08T01:15:20.972Z,10.30
2023-04-08T01:16:24.358Z,9.38
2023-04-08T01:17:27.130Z,10.05
2023-04-08T01:18:31.140Z,11.60
2023-04-08T01:19:36.269Z,9.68
2023-04-08T01:20:40.361Z,10.25
2023-04-08T01:21:42.988Z,9.77
2023-04-08T01:23:01.417Z,9.45
2023-04-08T01:24:27.873Z,11.23
2023-04-08T01:25:39.417Z,8.93
2023-04-08T01:26:42.116Z,9.13
2023-04-08T01:27:45.138Z,9.77
2023-04-08T01:28:49.715Z,10.23
2023-04-08T01:29:53.629Z,8.50
2023-04-08T01:30:58.743Z,8.77
2023-04-08T01:32:03.626Z,9.60
2023-04-08T01:33:07.019Z,12.68
2023-04-08T01:34:11.757Z,8.13
2023-04-08T01:35:15.890Z,8.35
2023-04-08T01:36:18.895Z,11.38
2023-04-08T01:37:22.586Z,9.77
2023-04-08T01:38:28.672Z,8.50
2023-04-08T01:39:31.721Z,8.82
2023-04-08T01:40:35.788Z,9.63
2023-04-08T01:41:39.332Z,11.73
2023-04-08T01:42:42.644Z,8.77
2023-04-08T01:43:48.009Z,11.25
2023-04-08T01:44:52.508Z,9.65
2023-04-08T01:45:58.582Z,9.63
2023-04-08T01:47:02.159Z,10.55
2023-04-08T01:48:05.618Z,9.98
2023-04-08T01:49:09.454Z,10.80
2023-04-08T01:50:13.081Z,12.32
2023-04-08T01:51:16.143Z,10.27
2023-04-08T01:52:20.988Z,9.23
2023-04-08T01:53:23.770Z,11.10
2023-04-08T01:54:26.288Z,12.38
2023-04-08T01:55:29.173Z,9.68
2023-04-08T01:56:33.841Z,10.13
2023-04-08T01:57:38.533Z,8.05
2023-04-08T01:58:51.615Z,8.82
2023-04-08T01:59:58.066Z,8.05
2023-04-08T02:01:00.767Z,10.65
2023-04-08T02:02:06.305Z,10.55
2023-04-08T02:03:09.526Z,9.85
2023-04-08T02:04:13.628Z,10.60
2023-04-08T02:05:16.321Z,10.05
2023-04-08T02:06:18.861Z,11.57
2023-04-08T02:07:21.641Z,9.45
2023-04-08T02:08:24.848Z,10.18
2023-04-08T02:09:27.445Z,9.38
2023-04-08T02:10:29.893Z,8.05
2023-04-08T02:11:32.422Z,8.73
2023-04-08T02:12:35.105Z,9.82
2023-04-08T02:13:38.258Z,8.77
2023-04-08T02:14:40.810Z,7.95
2023-04-08T02:15:47.923Z,11.60
2023-04-08T02:16:54.437Z,7.22
2023-04-08T02:18:08.013Z,9.77
2023-04-08T02:19:29.200Z,12.45
2023-04-08T02:20:37.741Z,13.18
2023-04-08T02:21:53.469Z,11.25
2023-04-08T02:23:18.156Z,12.30
2023-04-08T02:24:21.152Z,13.75
2023-04-08T02:25:25.304Z,10.45
2023-04-08T02:26:27.891Z,11.93
2023-04-08T02:27:34.736Z,10.32
2023-04-08T02:28:37.281Z,11.02
2023-04-08T02:29:40.859Z,9.40
2023-04-08T02:30:45.234Z,9.80
2023-04-08T02:31:49.004Z,8.70
2023-04-08T02:32:54.242Z,8.73
2023-04-08T02:33:58.058Z,9.98
2023-04-08T02:35:03.823Z,12.25
2023-04-08T02:36:07.002Z,8.68
2023-04-08T02:37:09.868Z,7.53
2023-04-08T02:38:12.386Z,12.45
2023-04-08T02:39:14.865Z,10.75
2023-04-08T02:40:31.465Z,9.55
2023-04-08T02:41:33.981Z,10.13
2023-04-08T02:42:36.551Z,8.32
2023-04-08T02:43:38.982Z,7.25
2023-04-08T02:44:42.303Z,8.95
2023-04-08T02:45:45.537Z,8.60
2023-04-08T02:46:48.192Z,10.65
2023-04-08T02:47:50.999Z,8.77
2023-04-08T02:48:53.789Z,9.30
2023-04-08T02:49:56.465Z,11.18
2023-04-08T02:50:59.002Z,9.50
2023-04-08T02:52:01.743Z,9.60
2023-04-08T02:53:04.411Z,8.18
2023-04-08T02:54:09.068Z,10.80
2023-04-08T02:55:11.697Z,8.38
2023-04-08T02:56:14.201Z,12.32
2023-04-08T02:57:17.179Z,10.88
2023-04-08T02:58:19.926Z,8.85
2023-04-08T02:59:22.398Z,8.57
2023-04-08T03:00:25.092Z,9.93
2023-04-08T03:01:28.057Z,9.30
2023-04-08T03:02:30.956Z,8.50
2023-04-08T03:03:33.693Z,10.23
2023-04-08T03:04:36.341Z,10.15
2023-04-08T03:05:38.814Z,11.00
2023-04-08T03:06:41.330Z,12.48
2023-04-08T03:07:43.909Z,11.27
2023-04-08T03:08:46.456Z,10.18
2023-04-08T03:09:49.045Z,9.68
2023-04-08T03:10:51.707Z,10.93
2023-04-08T03:11:55.064Z,11.13
2023-04-08T03:12:57.559Z,8.52
2023-04-08T03:14:00.289Z,11.27
2023-04-08T03:15:03.661Z,10.70
2023-04-08T03:16:06.801Z,10.95
2023-04-08T03:17:09.507Z,11.90
2023-04-08T03:18:12.104Z,10.93
2023-04-08T03:19:14.596Z,9.90
2023-04-08T03:20:17.134Z,11.35
2023-04-08T03:21:19.685Z,10.73
2023-04-08T03:22:24.421Z,10.75
2023-04-08T03:23:26.963Z,11.85
2023-04-08T03:24:29.476Z,11.85
2023-04-08T03:25:32.118Z,11.00
2023-04-08T03:26:34.574Z,10.43
2023-04-08T03:27:37.069Z,10.43
2023-04-08T03:28:39.568Z,11.90
2023-04-08T03:29:42.284Z,9.77
2023-04-08T03:30:44.810Z,9.38
2023-04-08T03:31:47.311Z,10.60
2023-04-08T03:32:49.951Z,11.23
2023-04-08T03:33:52.477Z,12.13
2023-04-08T03:34:54.929Z,10.10
2023-04-08T03:35:58.120Z,8.65
2023-04-08T03:37:00.612Z,10.27
2023-04-08T03:38:03.222Z,9.80
2023-04-08T03:39:05.918Z,11.32
2023-04-08T03:40:09.153Z,9.85
2023-04-08T03:41:11.766Z,12.20
2023-04-08T03:42:14.264Z,10.85
2023-04-08T03:43:16.852Z,10.63
2023-04-08T03:44:19.307Z,9.93
2023-04-08T03:45:21.947Z,11.00
2023-04-08T03:46:24.609Z,12.55
2023-04-08T03:47:27.576Z,11.80
2023-04-08T03:48:30.106Z,12.13
2023-04-08T03:49:32.551Z,12.93
2023-04-08T03:50:35.057Z,12.05
2023-04-08T03:51:37.587Z,12.70
2023-04-08T03:52:40.096Z,15.90
2023-04-08T03:53:42.574Z,11.73
2023-04-08T03:54:45.176Z,10.75
2023-04-08T03:55:51.113Z,10.77
2023-04-08T03:56:53.576Z,10.65
2023-04-08T03:57:56.199Z,11.10
2023-04-08T03:58:58.733Z,12.48
2023-04-08T04:00:01.261Z,13.23
2023-04-08T04:01:03.929Z,12.20
2023-04-08T04:02:06.478Z,13.10
2023-04-08T04:03:10.983Z,10.40
2023-04-08T04:04:14.100Z,10.05
2023-04-08T04:05:16.763Z,12.07
2023-04-08T04:06:19.250Z,10.40
2023-04-08T04:07:21.776Z,12.68
2023-04-08T04:08:24.304Z,11.65
2023-04-08T04:09:27.097Z,16.10
2023-04-08T04:10:29.574Z,16.20
2023-04-08T04:11:32.139Z,9.98
2023-04-08T04:12:34.605Z,12.75
2023-04-08T04:13:37.078Z,13.15
2023-04-08T04:14:39.676Z,14.15
2023-04-08T04:15:42.450Z,15.18
2023-04-08T04:16:45.147Z,12.10
2023-04-08T04:17:50.918Z,12.27
2023-04-08T04:18:54.314Z,13.13
2023-04-08T04:19:57.511Z,13.57
2023-04-08T04:21:00.411Z,14.40
2023-04-08T04:22:02.809Z,13.90
2023-04-08T04:23:05.243Z,12.27
2023-04-08T04:24:07.912Z,13.50
2023-04-08T04:25:11.085Z,16.75
2023-04-08T04:26:13.695Z,14.13
2023-04-08T04:27:17.627Z,13.48
2023-04-08T04:28:20.171Z,13.55
2023-04-08T04:29:22.660Z,14.80
2023-04-08T04:30:25.196Z,12.20
2023-04-08T04:31:27.592Z,13.05
2023-04-08T04:32:30.123Z,11.48
2023-04-08T04:33:32.616Z,13.65
2023-04-08T04:34:35.124Z,12.93
2023-04-08T04:35:37.656Z,12.95
2023-04-08T04:36:40.255Z,15.45
2023-04-08T04:37:43.570Z,16.92
2023-04-08T04:38:47.693Z,13.13
2023-04-08T04:39:51.582Z,12.75
2023-04-08T04:40:54.193Z,13.23
2023-04-08T04:41:56.774Z,15.07
2023-04-08T04:42:59.228Z,14.43
2023-04-08T04:44:02.089Z,15.15
2023-04-08T04:45:05.316Z,14.50
2023-04-08T04:46:09.260Z,15.05
2023-04-08T04:47:11.768Z,16.40
2023-04-08T04:48:14.320Z,14.80
2023-04-08T04:49:16.845Z,21.13
2023-04-08T04:50:19.309Z,16.65
2023-04-08T04:51:21.924Z,16.52
2023-04-08T04:52:24.437Z,15.25
2023-04-08T04:53:27.012Z,14.45
2023-04-08T04:54:29.515Z,15.55
2023-04-08T04:55:32.323Z,13.63
2023-04-08T04:56:34.982Z,17.15
2023-04-08T04:57:37.476Z,12.85
2023-04-08T04:58:39.940Z,14.73
2023-04-08T04:59:42.499Z,12.30
2023-04-08T05:00:46.345Z,13.13
2023-04-08T05:01:49.091Z,12.75
2023-04-08T05:02:51.825Z,12.88
2023-04-08T05:03:54.479Z,15.43
2023-04-08T05:04:57.012Z,12.52
2023-04-08T05:05:59.713Z,15.48
2023-04-08T05:07:02.310Z,13.50
2023-04-08T05:08:04.949Z,13.52
2023-04-08T05:09:07.469Z,14.40
2023-04-08T05:10:11.172Z,16.98
2023-04-08T05:11:14.843Z,12.57
2023-04-08T05:12:17.560Z,13.13
2023-04-08T05:13:20.691Z,14.80
2023-04-08T05:14:23.244Z,12.13
2023-04-08T05:15:25.777Z,13.43
2023-04-08T05:16:28.430Z,11.38
2023-04-08T05:17:31.292Z,12.00
2023-04-08T05:18:33.853Z,13.68
2023-04-08T05:19:36.283Z,14.85
2023-04-08T05:20:39.239Z,14.27
2023-04-08T05:21:41.761Z,13.98
2023-04-08T05:22:45.374Z,15.43
2023-04-08T05:23:47.800Z,11.88
2023-04-08T05:24:50.527Z,14.90
2023-04-08T05:25:53.166Z,18.20
2023-04-08T05:26:57.768Z,15.70
2023-04-08T05:28:00.499Z,15.98
2023-04-08T05:29:03.038Z,15.25
2023-04-08T05:30:06.230Z,16.95
2023-04-08T05:31:08.694Z,17.80
2023-04-08T05:32:11.251Z,14.23
2023-04-08T05:33:13.675Z,16.75
2023-04-08T05:34:19.458Z,19.35
2023-04-08T05:35:22.060Z,16.23
2023-04-08T05:36:24.664Z,15.80
2023-04-08T05:37:27.190Z,15.35
2023-04-08T05:38:29.737Z,13.95
2023-04-08T05:39:32.344Z,18.85
2023-04-08T05:40:34.888Z,16.17
2023-04-08T05:41:37.312Z,18.38
2023-04-08T05:42:39.896Z,14.15
2023-04-08T05:43:42.381Z,17.17
2023-04-08T05:44:44.879Z,15.50
2023-04-08T05:45:47.399Z,14.35
2023-04-08T05:46:50.088Z,13.13
2023-04-08T05:47:52.659Z,17.48
2023-04-08T05:48:55.181Z,17.48
2023-04-08T05:49:57.761Z,14.57
2023-04-08T05:51:01.058Z,11.98
2023-04-08T05:52:03.828Z,13.05
2023-04-08T05:53:06.508Z,13.18
2023-04-08T05:54:09.252Z,10.48
2023-04-08T05:55:12.569Z,11.75
2023-04-08T05:56:15.900Z,13.80
2023-04-08T05:57:18.509Z,11.05
2023-04-08T05:58:20.995Z,11.63
2023-04-08T05:59:23.519Z,9.52
2023-04-08T06:00:26.887Z,11.20
2023-04-08T06:01:29.663Z,10.27
2023-04-08T06:02:32.332Z,9.73
2023-04-08T06:03:35.318Z,11.05
2023-04-08T06:04:38.109Z,9.45
2023-04-08T06:05:40.638Z,9.48
2023-04-08T06:06:43.298Z,8.70
2023-04-08T06:07:46.234Z,11.18
2023-04-08T06:08:49.250Z,11.00
2023-04-08T06:09:51.921Z,10.52
2023-04-08T06:10:54.328Z,8.60
2023-04-08T06:11:57.532Z,10.02
2023-04-08T06:13:00.245Z,9.32
2023-04-08T06:14:02.700Z,8.68
2023-04-08T06:15:07.239Z,8.25
2023-04-08T06:16:14.213Z,8.35
2023-04-08T06:17:16.788Z,7.72
2023-04-08T06:18:19.302Z,8.82
2023-04-08T06:19:21.735Z,7.63
2023-04-08T06:20:24.342Z,9.18
2023-04-08T06:21:27.747Z,7.25
2023-04-08T06:22:30.373Z,9.02
2023-04-08T06:23:33.187Z,7.50
2023-04-08T06:24:35.722Z,7.63
2023-04-08T06:25:38.387Z,6.55
2023-04-08T06:26:41.619Z,8.00
2023-04-08T06:27:44.226Z,6.97
2023-04-08T06:28:46.678Z,8.13
2023-04-08T06:29:49.295Z,6.30
2023-04-08T06:30:51.787Z,7.57
2023-04-08T06:31:54.330Z,7.65
2023-04-08T06:32:57.028Z,8.43
2023-04-08T06:33:59.841Z,7.07
2023-04-08T06:35:02.406Z,6.35
2023-04-08T06:36:06.221Z,6.80
2023-04-08T06:37:08.870Z,7.90
2023-04-08T06:38:11.462Z,6.53
2023-04-08T06:39:15.155Z,7.50
2023-04-08T06:40:17.827Z,6.32
2023-04-08T06:41:20.470Z,5.80
2023-04-08T06:42:24.298Z,7.65
2023-04-08T06:43:49.792Z,7.20
2023-04-08T06:44:52.443Z,5.72
2023-04-08T06:45:54.952Z,11.38
2023-04-08T06:46:57.542Z,7.22
2023-04-08T06:48:00.433Z,7.57
2023-04-08T06:49:04.652Z,7.18
2023-04-08T06:50:07.575Z,6.22
2023-04-08T06:51:10.420Z,7.13
2023-04-08T06:52:14.739Z,7.03
2023-04-08T06:53:17.791Z,6.35
2023-04-08T06:54:20.440Z,7.57
2023-04-08T06:55:23.016Z,6.70
2023-04-08T06:56:26.303Z,5.82
2023-04-08T06:57:28.849Z,6.03
2023-04-08T06:58:31.333Z,5.25
2023-04-08T06:59:33.806Z,6.00
2023-04-08T07:00:37.127Z,5.50
2023-04-08T07:01:39.806Z,6.20
2023-04-08T07:02:42.570Z,5.30
2023-04-08T07:03:45.613Z,6.78
2023-04-08T07:04:48.486Z,5.72
2023-04-08T07:05:51.099Z,6.18
2023-04-08T07:06:53.507Z,5.63
2023-04-08T07:07:57.389Z,5.90
2023-04-08T07:08:59.881Z,5.70
2023-04-08T07:10:02.526Z,5.97
2023-04-08T07:11:05.855Z,4.65
2023-04-08T07:12:08.425Z,6.00
2023-04-08T07:13:11.106Z,6.28
2023-04-08T07:14:16.417Z,9.13
2023-04-08T07:15:19.021Z,5.10
2023-04-08T07:16:21.618Z,5.75
2023-04-08T07:17:24.307Z,7.85
2023-04-08T07:18:27.207Z,5.55
2023-04-08T07:19:30.126Z,6.03
2023-04-08T07:20:32.703Z,5.05
2023-04-08T07:21:35.636Z,5.25
2023-04-08T07:22:38.096Z,5.97
2023-04-08T07:23:40.511Z,5.05
2023-04-08T07:24:45.705Z,5.57
2023-04-08T07:25:48.336Z,8.60
2023-04-08T07:26:51.501Z,9.65
2023-04-08T07:27:53.982Z,4.72
2023-04-08T07:28:56.587Z,4.22
2023-04-08T07:29:59.227Z,4.13
2023-04-08T07:31:18.536Z,6.47
2023-04-08T07:32:21.940Z,5.07
2023-04-08T07:33:24.532Z,4.65
2023-04-08T07:34:27.085Z,4.28
2023-04-08T07:35:30.032Z,4.20
2023-04-08T07:36:32.526Z,4.90
2023-04-08T07:37:35.025Z,3.88
2023-04-08T07:38:38.668Z,4.75
2023-04-08T07:39:41.461Z,4.72
2023-04-08T07:40:43.902Z,4.18
2023-04-08T07:41:46.382Z,4.30
2023-04-08T07:42:49.262Z,4.78
2023-04-08T07:43:52.014Z,6.22
2023-04-08T07:44:54.517Z,4.72
2023-04-08T07:46:04.744Z,3.97
2023-04-08T07:48:09.740Z,5.03
2023-04-08T07:49:12.638Z,4.47
2023-04-08T07:50:15.192Z,3.95
2023-04-08T07:51:20.245Z,4.03
2023-04-08T07:52:23.647Z,3.97
2023-04-08T07:53:26.818Z,3.53
2023-04-08T07:54:31.747Z,3.42
2023-04-08T07:55:37.106Z,3.50
2023-04-08T07:56:40.607Z,5.03
2023-04-08T07:57:43.205Z,5.15
2023-04-08T07:58:47.202Z,3.25
2023-04-08T07:59:49.628Z,3.72
2023-04-08T08:00:52.702Z,4.03
2023-04-08T08:01:55.441Z,4.45
2023-04-08T08:02:58.164Z,3.45
2023-04-08T08:04:01.248Z,3.50
2023-04-08T08:05:03.965Z,3.60
2023-04-08T08:06:06.530Z,3.17
2023-04-08T08:07:08.938Z,3.53
2023-04-08T08:08:14.142Z,4.15
2023-04-08T08:09:16.653Z,3.80
2023-04-08T08:10:19.285Z,4.25
2023-04-08T08:11:22.712Z,3.97
2023-04-08T08:12:25.339Z,4.20
2023-04-08T08:13:27.902Z,3.97
2023-04-08T08:14:30.628Z,3.50
2023-04-08T08:15:33.484Z,3.47
2023-04-08T08:16:36.549Z,3.28
2023-04-08T08:17:39.378Z,3.38
2023-04-08T08:18:42.102Z,3.55
2023-04-08T08:19:44.534Z,6.93
2023-04-08T08:20:47.049Z,3.50
2023-04-08T08:21:49.711Z,3.70
2023-04-08T08:22:57.212Z,4.90
2023-04-08T08:24:00.270Z,6.00
2023-04-08T08:25:04.627Z,3.47
2023-04-08T08:26:11.704Z,3.25
2023-04-08T08:27:14.394Z,4.28
2023-04-08T08:28:16.956Z,3.40
2023-04-08T08:29:19.526Z,3.03
2023-04-08T08:30:22.403Z,4.55
2023-04-08T08:31:24.981Z,3.42
2023-04-08T08:32:27.663Z,3.38
2023-04-08T08:33:30.328Z,3.30
2023-04-08T08:34:33.660Z,3.28
2023-04-08T08:35:36.479Z,3.67
2023-04-08T08:36:38.955Z,3.80
2023-04-08T08:37:41.784Z,3.33
2023-04-08T08:38:44.411Z,4.03
2023-04-08T08:39:46.880Z,5.82
2023-04-08T08:40:58.110Z,3.17
2023-04-08T08:42:00.869Z,4.50
2023-04-08T08:43:04.205Z,3.20
2023-04-08T08:44:07.875Z,2.80
2023-04-08T08:45:10.613Z,3.50
2023-04-08T08:46:17.427Z,3.05
2023-04-08T08:47:19.925Z,3.80
2023-04-08T08:48:22.742Z,3.22
2023-04-08T08:49:25.425Z,3.72
2023-04-08T08:50:28.479Z,5.13
2023-04-08T08:51:32.850Z,3.80
2023-04-08T08:52:35.635Z,4.20
2023-04-08T08:53:38.617Z,3.58
2023-04-08T08:54:41.488Z,4.22
2023-04-08T08:56:13.692Z,3.90
2023-04-08T08:57:20.029Z,3.15
2023-04-08T08:58:22.647Z,3.08
2023-04-08T08:59:25.467Z,3.60
2023-04-08T09:00:42.599Z,3.03
2023-04-08T09:01:45.307Z,4.80
2023-04-08T09:02:47.976Z,2.90
2023-04-08T09:04:14.434Z,3.40
2023-04-08T09:05:17.506Z,3.28
2023-04-08T09:06:20.401Z,6.05
2023-04-08T09:07:28.091Z,3.88
2023-04-08T09:08:35.463Z,4.63
2023-04-08T09:10:04.804Z,4.95
2023-04-08T09:11:18.370Z,3.50
2023-04-08T09:12:21.470Z,3.88
2023-04-08T09:13:24.816Z,3.53
2023-04-08T09:14:27.369Z,3.42
2023-04-08T09:15:30.080Z,3.78
2023-04-08T09:16:32.982Z,3.63
2023-04-08T09:17:39.637Z,5.90
2023-04-08T09:18:46.063Z,3.95
2023-04-08T09:20:11.873Z,3.28
2023-04-08T09:21:17.018Z,3.90
2023-04-08T09:22:19.700Z,4.95
2023-04-08T09:23:22.579Z,2.95
2023-04-08T09:24:30.074Z,3.78
2023-04-08T09:25:33.676Z,3.28
2023-04-08T09:26:37.583Z,3.63
2023-04-08T09:27:40.474Z,3.95
2023-04-08T09:28:44.848Z,4.05
2023-04-08T09:29:47.383Z,4.15
2023-04-08T09:30:50.107Z,3.35
2023-04-08T09:31:59.859Z,3.40
2023-04-08T09:34:14.520Z,3.47
2023-04-08T09:35:18.555Z,3.72
2023-04-08T09:36:21.227Z,7.70
2023-04-08T09:37:23.770Z,3.10
2023-04-08T09:38:26.303Z,3.33
2023-04-08T09:39:28.790Z,3.30
2023-04-08T09:40:35.829Z,3.92
2023-04-08T09:41:39.412Z,3.50
2023-04-08T09:42:45.800Z,4.05
2023-04-08T09:43:50.846Z,3.15
2023-04-08T09:44:55.005Z,3.40
2023-04-08T09:45:58.787Z,3.70
2023-04-08T09:47:11.361Z,3.15
2023-04-08T09:48:19.250Z,2.80
2023-04-08T09:49:27.879Z,3.10
2023-04-08T09:50:38.335Z,3.40
2023-04-08T09:51:50.476Z,3.10
2023-04-08T09:52:57.534Z,3.22
2023-04-08T09:54:03.003Z,3.42
2023-04-08T09:55:08.914Z,3.55
2023-04-08T09:56:12.698Z,3.05
2023-04-08T09:57:20.162Z,3.58
2023-04-08T09:58:34.317Z,2.85
2023-04-08T09:59:38.835Z,3.72
2023-04-08T10:00:50.779Z,3.47
2023-04-08T10:01:54.756Z,3.13
2023-04-08T10:03:36.449Z,3.10
2023-04-08T10:04:42.242Z,3.22
2023-04-08T10:05:46.276Z,2.97
2023-04-08T10:06:59.704Z,3.42
2023-04-08T10:08:02.177Z,4.20
2023-04-08T10:09:04.788Z,2.85
2023-04-08T10:10:09.332Z,3.53
2023-04-08T10:11:12.163Z,2.88
2023-04-08T10:12:16.001Z,3.03
2023-04-08T10:13:18.968Z,3.20
2023-04-08T10:14:22.334Z,2.90
2023-04-08T10:15:32.183Z,3.58
2023-04-08T10:16:34.790Z,3.58
2023-04-08T10:17:37.849Z,2.90
2023-04-08T10:18:40.618Z,2.75
2023-04-08T10:19:43.216Z,2.97
2023-04-08T10:20:47.476Z,2.92
2023-04-08T10:21:50.507Z,3.10
2023-04-08T10:22:53.084Z,2.92
2023-04-08T10:23:59.491Z,3.22
2023-04-08T10:25:17.198Z,3.28
2023-04-08T10:26:35.965Z,8.13
2023-04-08T10:27:42.189Z,3.10
2023-04-08T10:28:44.762Z,3.17
2023-04-08T10:29:48.430Z,3.50
2023-04-08T10:30:52.207Z,4.25
2023-04-08T10:31:55.156Z,4.90
2023-04-08T10:33:01.413Z,3.58
2023-04-08T10:34:33.661Z,2.90
2023-04-08T10:35:37.189Z,2.90
2023-04-08T10:36:39.735Z,3.10
2023-04-08T10:37:42.425Z,2.88
2023-04-08T10:38:44.947Z,3.35
2023-04-08T10:39:53.030Z,3.03
2023-04-08T10:40:55.722Z,3.33
2023-04-08T10:41:58.341Z,3.50
2023-04-08T10:43:01.094Z,2.80
2023-04-08T10:44:18.849Z,3.10
2023-04-08T10:45:21.457Z,3.45
2023-04-08T10:46:25.437Z,3.60
2023-04-08T10:47:28.600Z,4.75
2023-04-08T10:48:31.397Z,3.28
2023-04-08T10:49:37.154Z,2.92
2023-04-08T10:50:39.830Z,3.47
2023-04-08T10:51:44.247Z,3.30
2023-04-08T10:52:52.746Z,3.40
2023-04-08T10:53:55.488Z,3.58
2023-04-08T10:54:58.194Z,5.75
2023-04-08T10:56:08.157Z,3.10
2023-04-08T10:57:10.608Z,3.10
2023-04-08T10:58:13.357Z,4.68
2023-04-08T10:59:17.783Z,4.78
2023-04-08T11:00:32.916Z,3.47
2023-04-08T11:01:40.750Z,3.60
2023-04-08T11:02:43.595Z,3.60
2023-04-08T11:03:46.546Z,3.28
2023-04-08T11:04:49.106Z,3.50
2023-04-08T11:05:51.768Z,3.80
2023-04-08T11:06:54.348Z,4.30
2023-04-08T11:07:57.848Z,3.53
2023-04-08T11:09:04.259Z,3.65
2023-04-08T11:10:07.359Z,4.15
2023-04-08T11:11:11.472Z,4.65
2023-04-08T11:12:18.869Z,4.07
2023-04-08T11:13:23.550Z,3.90
2023-04-08T11:14:26.122Z,4.05
2023-04-08T11:15:30.686Z,4.15
2023-04-08T11:16:34.343Z,5.10
2023-04-08T11:17:37.814Z,5.20
2023-04-08T11:18:41.009Z,3.90
2023-04-08T11:19:43.674Z,4.03
2023-04-08T11:20:46.247Z,3.53
2023-04-08T11:21:48.805Z,3.72
2023-04-08T11:22:52.313Z,4.97
2023-04-08T11:23:55.243Z,3.78
2023-04-08T11:24:58.058Z,3.65
2023-04-08T11:26:01.155Z,3.50
2023-04-08T11:27:06.355Z,3.47
2023-04-08T11:28:09.240Z,3.60
2023-04-08T11:29:15.169Z,5.18
2023-04-08T11:30:18.140Z,4.05
2023-04-08T11:31:23.528Z,6.88
2023-04-08T11:32:27.498Z,4.03
2023-04-08T11:33:33.350Z,6.65
2023-04-08T11:34:39.512Z,5.85
2023-04-08T11:35:42.717Z,4.35
2023-04-08T11:36:45.418Z,4.63
2023-04-08T11:37:49.812Z,4.80
2023-04-08T11:38:54.577Z,7.15
2023-04-08T11:39:57.137Z,4.70
2023-04-08T11:41:00.523Z,4.22
2023-04-08T11:42:03.305Z,4.32
2023-04-08T11:43:12.885Z,6.20
2023-04-08T11:44:15.626Z,4.68
2023-04-08T11:45:20.121Z,5.07
2023-04-08T11:46:23.352Z,4.78
2023-04-08T11:47:35.227Z,4.90
2023-04-08T11:48:38.680Z,4.45
2023-04-08T11:49:44.861Z,4.25
2023-04-08T11:50:47.750Z,4.88
2023-04-08T11:52:00.293Z,4.82
2023-04-08T11:53:03.150Z,4.50
2023-04-08T11:54:08.598Z,6.30
2023-04-08T11:55:12.770Z,5.97
2023-04-08T11:57:30.274Z,4.60
2023-04-08T11:58:32.943Z,5.32
2023-04-08T11:59:36.266Z,4.80
2023-04-08T12:00:39.434Z,5.15
2023-04-08T12:01:41.984Z,6.50
2023-04-08T12:02:44.673Z,4.72
2023-04-08T12:04:01.618Z,6.55
2023-04-08T12:05:04.492Z,5.00
2023-04-08T12:06:08.876Z,5.07
2023-04-08T12:07:11.628Z,4.47
2023-04-08T12:08:14.134Z,4.00
2023-04-08T12:09:17.107Z,5.63
2023-04-08T12:10:19.648Z,4.97
2023-04-08T12:11:22.368Z,4.47
2023-04-08T12:12:24.962Z,5.05
2023-04-08T12:13:27.776Z,5.00
2023-04-08T12:14:30.271Z,4.85
2023-04-08T12:15:32.872Z,8.10
2023-04-08T12:16:35.786Z,5.00
2023-04-08T12:17:39.058Z,6.00
2023-04-08T12:18:41.850Z,4.97
2023-04-08T12:19:44.470Z,6.63
2023-04-08T12:20:46.988Z,4.95
2023-04-08T12:21:49.510Z,5.63
2023-04-08T12:22:52.892Z,5.18
2023-04-08T12:23:55.432Z,5.72
2023-04-08T12:24:59.309Z,4.47
2023-04-08T12:26:02.114Z,6.63
2023-04-08T12:27:05.187Z,6.75
2023-04-08T12:28:09.883Z,7.05
2023-04-08T12:29:12.718Z,6.43
2023-04-08T12:30:16.487Z,5.82
2023-04-08T12:31:19.431Z,5.18
2023-04-08T12:32:22.982Z,4.70
2023-04-08T12:33:25.685Z,8.23
2023-04-08T12:34:28.738Z,4.88
2023-04-08T12:35:31.518Z,7.50
2023-04-08T12:36:34.003Z,4.72
2023-04-08T12:37:36.952Z,4.40
2023-04-08T12:38:39.512Z,4.70
2023-04-08T12:39:42.158Z,5.60
2023-04-08T12:40:44.788Z,4.57
2023-04-08T12:41:47.438Z,5.95
2023-04-08T12:42:49.903Z,4.95
2023-04-08T12:43:52.340Z,6.32
2023-04-08T12:44:54.953Z,5.63
2023-04-08T12:45:57.715Z,4.85
2023-04-08T12:47:00.481Z,4.63
2023-04-08T12:48:03.231Z,3.70
2023-04-08T12:49:06.457Z,5.80
2023-04-08T12:50:10.431Z,3.55
2023-04-08T12:51:13.255Z,4.35
2023-04-08T12:52:15.661Z,3.70
2023-04-08T12:53:18.253Z,3.42
2023-04-08T12:54:21.629Z,4.72
2023-04-08T12:55:26.883Z,5.28
2023-04-08T12:56:29.923Z,3.42
2023-04-08T12:57:32.757Z,4.32
2023-04-08T12:58:35.303Z,4.75
2023-04-08T12:59:39.924Z,5.10
2023-04-08T13:00:46.577Z,5.07
2023-04-08T13:01:49.271Z,4.95
2023-04-08T13:02:51.866Z,4.40
2023-04-08T13:03:54.711Z,4.18
2023-04-08T13:04:57.367Z,4.43
2023-04-08T13:05:59.871Z,4.80
2023-04-08T13:07:02.507Z,4.63
2023-04-08T13:08:05.040Z,4.22
2023-04-08T13:09:07.526Z,3.63
2023-04-08T13:10:10.431Z,3.60
2023-04-08T13:11:13.311Z,4.85
2023-04-08T13:12:16.302Z,3.67
2023-04-08T13:13:18.822Z,4.55
2023-04-08T13:14:21.369Z,4.00
2023-04-08T13:15:24.561Z,3.60
2023-04-08T13:16:27.996Z,4.25
2023-04-08T13:17:30.719Z,5.05
2023-04-08T13:18:33.348Z,4.00
2023-04-08T13:19:36.407Z,5.72
2023-04-08T13:20:39.183Z,3.53
2023-04-08T13:21:41.593Z,4.93
2023-04-08T13:22:44.145Z,4.45
2023-04-08T13:23:46.958Z,3.20
2023-04-08T13:24:49.683Z,4.72
2023-04-08T13:25:52.451Z,4.45
2023-04-08T13:26:55.065Z,3.90
2023-04-08T13:27:57.718Z,3.70
2023-04-08T13:29:00.966Z,5.07
2023-04-08T13:30:03.937Z,3.55
2023-04-08T13:31:06.580Z,3.90
2023-04-08T13:32:09.363Z,3.83
2023-04-08T13:33:11.959Z,5.68
2023-04-08T13:34:14.475Z,5.05
2023-04-08T13:35:16.983Z,4.93
2023-04-08T13:36:19.463Z,8.00
2023-04-08T13:37:22.161Z,5.95
2023-04-08T13:38:24.708Z,6.80
2023-04-08T13:39:27.280Z,5.53
2023-04-08T13:40:30.485Z,4.53
2023-04-08T13:41:34.070Z,5.63
2023-04-08T13:42:37.610Z,5.72
2023-04-08T13:43:41.232Z,4.30
2023-04-08T13:44:43.868Z,4.97
2023-04-08T13:45:46.729Z,4.07
2023-04-08T13:46:49.152Z,5.18
2023-04-08T13:47:51.983Z,6.10
2023-04-08T13:48:54.798Z,5.68
2023-04-08T13:49:57.375Z,5.45
2023-04-08T13:50:59.999Z,3.85
2023-04-08T13:52:02.518Z,4.93
2023-04-08T13:53:05.124Z,6.18
2023-04-08T13:54:07.719Z,5.50
2023-04-08T13:55:10.647Z,6.68
2023-04-08T13:56:13.157Z,6.50
2023-04-08T13:57:15.826Z,5.40
2023-04-08T13:58:23.786Z,5.05
2023-04-08T13:59:26.722Z,5.55
2023-04-08T14:00:29.298Z,5.65
2023-04-08T14:01:31.847Z,6.57
2023-04-08T14:02:34.534Z,6.57
2023-04-08T14:03:37.325Z,8.02
2023-04-08T14:04:40.265Z,5.45
2023-04-08T14:05:42.937Z,4.95
2023-04-08T14:06:45.446Z,5.57
2023-04-08T14:07:48.021Z,6.68